createdAt,value
2018-09-14T00:03:01.944Z,11.20
2018-09-14T00:07:05.299Z,11.10
2018-09-14T00:11:08.650Z,11.10
2018-09-14T00:15:11.976Z,11.00
2018-09-14T00:19:15.339Z,10.90
2018-09-14T00:23:18.672Z,10.90
2018-09-14T00:27:22.054Z,10.80
2018-09-14T00:31:25.447Z,10.70
2018-09-14T00:35:28.881Z,10.60
2018-09-14T00:39:32.211Z,10.60
2018-09-14T00:43:35.547Z,10.60
2018-09-14T00:47:38.893Z,10.60
2018-09-14T00:51:42.304Z,10.60
2018-09-14T00:55:45.655Z,10.50
2018-09-14T00:59:49.025Z,10.50
2018-09-14T01:03:52.331Z,10.50
2018-09-14T01:07:55.657Z,10.50
2018-09-14T01:11:59.563Z,10.50
2018-09-14T01:16:02.918Z,10.50
2018-09-14T01:20:06.299Z,10.40
2018-09-14T01:24:09.731Z,10.50
2018-09-14T01:28:13.054Z,10.40
2018-09-14T01:32:16.360Z,10.40
2018-09-14T01:36:20.859Z,10.40
2018-09-14T01:40:24.197Z,10.40
2018-09-14T01:44:34.645Z,10.30
2018-09-14T01:48:41.503Z,10.30
2018-09-14T01:52:45.389Z,10.20
2018-09-14T01:56:49.001Z,10.20
2018-09-14T02:00:52.485Z,10.10
2018-09-14T02:04:55.858Z,10.10
2018-09-14T02:08:59.207Z,10.00
2018-09-14T02:13:02.546Z,10.00
2018-09-14T02:17:05.908Z,9.90
2018-09-14T02:21:09.343Z,9.90
2018-09-14T02:25:12.764Z,9.80
2018-09-14T02:29:16.082Z,9.80
2018-09-14T02:33:19.401Z,9.70
2018-09-14T02:37:22.723Z,9.70
2018-09-14T02:41:26.043Z,9.70
2018-09-14T02:45:29.371Z,9.60
2018-09-14T02:49:32.815Z,9.60
2018-09-14T02:53:36.143Z,9.60
2018-09-14T02:57:39.540Z,9.60
2018-09-14T03:01:42.882Z,9.60
2018-09-14T03:05:46.211Z,9.60
2018-09-14T03:09:49.551Z,9.60
2018-09-14T03:13:52.870Z,9.60
2018-09-14T03:17:56.207Z,9.60
2018-09-14T03:21:59.587Z,9.60
2018-09-14T03:26:02.985Z,9.60
2018-09-14T03:30:06.335Z,9.50
2018-09-14T03:34:09.663Z,9.50
2018-09-14T03:38:13.047Z,9.50
2018-09-14T03:42:16.466Z,9.50
2018-09-14T03:46:20.864Z,9.50
2018-09-14T03:50:24.220Z,9.50
2018-09-14T03:54:27.608Z,9.50
2018-09-14T03:58:30.943Z,9.50
2018-09-14T04:02:34.319Z,9.40
2018-09-14T04:06:37.683Z,9.40
2018-09-14T04:10:41.080Z,9.40
2018-09-14T04:14:44.416Z,9.40
2018-09-14T04:18:51.283Z,9.40
2018-09-14T04:22:54.669Z,9.40
2018-09-14T04:26:58.024Z,9.40
2018-09-14T04:31:01.587Z,9.40
2018-09-14T04:35:04.959Z,9.40
2018-09-14T04:39:09.404Z,9.30
2018-09-14T04:43:12.850Z,9.30
2018-09-14T04:47:16.227Z,9.30
2018-09-14T04:51:19.663Z,9.30
2018-09-14T04:55:23.654Z,9.30
2018-09-14T04:59:27.794Z,9.30
2018-09-14T05:03:31.737Z,9.30
2018-09-14T05:07:35.164Z,9.30
2018-09-14T05:11:38.500Z,9.20
2018-09-14T05:15:41.843Z,9.20
2018-09-14T05:19:45.180Z,9.30
2018-09-14T05:23:48.536Z,9.20
2018-09-14T05:27:51.894Z,9.30
2018-09-14T05:31:55.238Z,9.30
2018-09-14T05:35:58.577Z,9.30
2018-09-14T05:40:01.995Z,9.40
2018-09-14T05:44:05.271Z,9.50
2018-09-14T05:48:08.604Z,9.50
2018-09-14T05:52:12.817Z,9.60
2018-09-14T05:56:16.143Z,9.70
2018-09-14T06:00:19.539Z,9.80
2018-09-14T06:04:22.884Z,9.80
2018-09-14T06:08:26.232Z,9.90
2018-09-14T06:12:29.594Z,10.00
2018-09-14T06:16:32.910Z,10.10
2018-09-14T06:20:36.315Z,10.20
2018-09-14T06:24:39.649Z,10.30
2018-09-14T06:28:43.017Z,10.40
2018-09-14T06:32:46.392Z,10.50
2018-09-14T06:36:49.741Z,10.60
2018-09-14T06:40:53.234Z,10.80
2018-09-14T06:44:56.615Z,10.90
2018-09-14T06:48:59.949Z,11.00
2018-09-14T06:53:03.292Z,11.10
2018-09-14T06:57:06.631Z,11.20
2018-09-14T07:01:09.987Z,11.30
2018-09-14T07:05:13.307Z,11.40
2018-09-14T07:09:16.652Z,11.50
2018-09-14T07:13:20.128Z,11.60
2018-09-14T07:17:23.380Z,11.70
2018-09-14T07:21:26.821Z,11.80
2018-09-14T07:25:30.167Z,11.90
2018-09-14T07:29:33.578Z,12.00
2018-09-14T07:33:36.915Z,12.10
2018-09-14T07:37:40.291Z,12.10
2018-09-14T07:41:43.638Z,12.20
2018-09-14T07:45:47.006Z,12.30
2018-09-14T07:49:50.387Z,12.40
2018-09-14T07:53:53.818Z,12.50
2018-09-14T07:57:57.157Z,12.60
2018-09-14T08:02:00.525Z,12.70
2018-09-14T08:06:03.894Z,12.80
2018-09-14T08:10:07.248Z,12.90
2018-09-14T08:14:11.227Z,13.00
2018-09-14T08:18:14.549Z,13.20
2018-09-14T08:22:17.874Z,13.20
2018-09-14T08:26:21.228Z,13.30
2018-09-14T08:30:24.623Z,13.40
2018-09-14T08:34:27.972Z,13.60
2018-09-14T08:38:31.448Z,13.70
2018-09-14T08:42:35.044Z,13.80
2018-09-14T08:46:38.417Z,13.90
2018-09-14T08:50:41.759Z,14.10
2018-09-14T08:54:45.113Z,14.30
2018-09-14T08:58:48.463Z,14.50
2018-09-14T09:02:52.408Z,14.80
2018-09-14T09:06:55.769Z,15.10
2018-09-14T09:10:59.147Z,15.40
2018-09-14T09:15:02.525Z,15.60
2018-09-14T09:19:05.909Z,15.90
2018-09-14T09:23:09.271Z,16.20
2018-09-14T09:27:12.603Z,16.50
2018-09-14T09:31:16.021Z,16.80
2018-09-14T09:39:22.490Z,17.30
2018-09-14T09:43:25.941Z,17.60
2018-09-14T09:47:29.217Z,17.70
2018-09-14T09:51:32.626Z,17.90
2018-09-14T09:55:36.679Z,18.10
2018-09-14T09:59:40.043Z,18.40
2018-09-14T10:03:44.035Z,18.50
2018-09-14T10:07:47.355Z,18.70
2018-09-14T10:11:50.762Z,18.90
2018-09-14T10:15:54.124Z,19.10
2018-09-14T10:19:57.455Z,19.30
2018-09-14T10:24:00.795Z,19.50
2018-09-14T10:28:04.157Z,19.60
2018-09-14T10:32:07.541Z,19.80
2018-09-14T10:36:10.915Z,19.90
2018-09-14T10:40:14.287Z,20.10
2018-09-14T10:44:17.627Z,20.30
2018-09-14T10:48:20.967Z,20.50
2018-09-14T10:52:24.309Z,20.70
2018-09-14T10:56:27.652Z,20.90
2018-09-14T11:00:31.040Z,21.00
2018-09-14T11:04:34.416Z,21.20
2018-09-14T11:08:37.779Z,21.30
2018-09-14T11:12:41.303Z,21.50
2018-09-14T11:16:44.563Z,21.50
2018-09-14T11:20:47.944Z,21.60
2018-09-14T11:24:51.381Z,21.60
2018-09-14T11:28:54.651Z,21.60
2018-09-14T11:32:57.987Z,21.60
2018-09-14T11:37:01.316Z,21.60
2018-09-14T11:41:04.659Z,21.70
2018-09-14T11:45:08.142Z,21.80
2018-09-14T11:49:11.620Z,21.80
2018-09-14T11:53:14.983Z,21.90
2018-09-14T11:57:18.425Z,22.00
2018-09-14T12:01:22.064Z,22.00
2018-09-14T12:05:25.402Z,22.10
2018-09-14T12:09:28.771Z,22.20
2018-09-14T12:13:32.146Z,22.30
2018-09-14T12:17:35.519Z,22.40
2018-09-14T12:21:38.838Z,22.60
2018-09-14T12:25:42.171Z,22.70
2018-09-14T12:29:45.523Z,22.80
2018-09-14T12:33:48.968Z,22.90
2018-09-14T12:37:52.331Z,23.00
2018-09-14T12:41:55.663Z,23.00
2018-09-14T12:45:59.023Z,23.10
2018-09-14T12:50:02.360Z,23.10
2018-09-14T12:54:05.703Z,23.00
2018-09-14T12:58:09.031Z,23.10
2018-09-14T13:02:12.354Z,23.10
2018-09-14T13:06:15.695Z,23.00
2018-09-14T13:10:19.119Z,22.90
2018-09-14T13:14:23.755Z,22.90
2018-09-14T13:18:27.190Z,22.80
2018-09-14T13:22:30.523Z,22.80
2018-09-14T13:26:33.887Z,22.70
2018-09-14T13:30:37.294Z,22.70
2018-09-14T13:34:40.624Z,22.60
2018-09-14T13:38:43.963Z,22.60
2018-09-14T13:42:47.308Z,22.50
2018-09-14T13:46:50.640Z,22.50
2018-09-14T13:50:54.023Z,22.50
2018-09-14T13:54:57.347Z,22.40
2018-09-14T13:59:00.719Z,22.40
2018-09-14T14:03:04.347Z,22.40
2018-09-14T14:07:07.704Z,22.30
2018-09-14T14:11:11.056Z,22.30
2018-09-14T14:15:14.519Z,22.30
2018-09-14T14:19:17.859Z,22.40
2018-09-14T14:23:21.235Z,22.40
2018-09-14T14:27:24.553Z,22.40
2018-09-14T14:31:28.403Z,22.40
2018-09-14T14:35:31.755Z,22.50
2018-09-14T14:39:35.108Z,22.50
2018-09-14T14:43:38.415Z,22.50
2018-09-14T14:47:41.795Z,22.50
2018-09-14T14:51:46.746Z,22.50
2018-09-14T14:55:50.168Z,22.60
2018-09-14T14:59:53.543Z,22.60
2018-09-14T15:03:56.865Z,22.70
2018-09-14T15:08:07.182Z,22.70
2018-09-14T15:12:10.648Z,22.80
2018-09-14T15:16:14.008Z,22.80
2018-09-14T15:20:17.346Z,22.90
2018-09-14T15:24:20.740Z,23.00
2018-09-14T15:28:24.084Z,23.30
2018-09-14T15:32:27.448Z,23.60
2018-09-14T15:36:30.929Z,23.80
2018-09-14T15:40:34.272Z,24.10
2018-09-14T15:44:37.615Z,24.30
2018-09-14T15:48:40.972Z,24.50
2018-09-14T15:52:44.339Z,24.60
2018-09-14T15:56:47.727Z,24.70
2018-09-14T16:00:51.179Z,24.60
2018-09-14T16:04:54.491Z,24.70
2018-09-14T16:08:57.835Z,24.60
2018-09-14T16:13:01.399Z,24.50
2018-09-14T16:17:04.797Z,24.30
2018-09-14T16:21:08.190Z,24.20
2018-09-14T16:25:11.559Z,24.00
2018-09-14T16:29:16.341Z,23.80
2018-09-14T16:33:19.767Z,23.60
2018-09-14T16:37:23.202Z,23.30
2018-09-14T16:41:26.558Z,23.10
2018-09-14T16:45:29.942Z,22.80
2018-09-14T16:49:33.368Z,22.60
2018-09-14T16:53:36.760Z,22.40
2018-09-14T16:57:40.823Z,22.10
2018-09-14T17:01:44.401Z,22.00
2018-09-14T17:05:47.788Z,21.80
2018-09-14T17:09:51.190Z,21.60
2018-09-14T17:13:54.596Z,21.50
2018-09-14T17:17:59.759Z,21.30
2018-09-14T17:22:03.149Z,21.20
2018-09-14T17:26:06.537Z,21.00
2018-09-14T17:30:12.974Z,20.90
2018-09-14T17:34:16.562Z,20.80
2018-09-14T17:38:20.181Z,20.60
2018-09-14T17:42:23.511Z,20.50
2018-09-14T17:46:26.849Z,20.30
2018-09-14T17:50:30.287Z,20.20
2018-09-14T17:54:33.787Z,20.10
2018-09-14T17:58:37.387Z,19.90
2018-09-14T18:02:40.831Z,19.70
2018-09-14T18:06:44.155Z,19.60
2018-09-14T18:10:47.619Z,19.50
2018-09-14T18:14:51.105Z,19.40
2018-09-14T18:18:54.455Z,19.30
2018-09-14T18:22:57.813Z,19.10
2018-09-14T18:27:01.183Z,19.00
2018-09-14T18:31:04.631Z,18.90
2018-09-14T18:35:07.978Z,18.80
2018-09-14T18:39:12.956Z,18.70
2018-09-14T18:43:16.319Z,18.60
2018-09-14T18:47:19.699Z,18.50
2018-09-14T18:51:23.304Z,18.40
2018-09-14T18:55:26.891Z,18.30
2018-09-14T18:59:30.494Z,18.20
2018-09-14T19:03:34.153Z,18.10
2018-09-14T19:07:37.801Z,18.10
2018-09-14T19:11:41.421Z,18.00
2018-09-14T19:15:44.820Z,17.90
2018-09-14T19:19:48.414Z,17.80
2018-09-14T19:23:52.030Z,17.80
2018-09-14T19:27:55.633Z,17.70
2018-09-14T19:31:59.246Z,17.60
2018-09-14T19:36:02.668Z,17.50
2018-09-14T19:40:06.333Z,17.50
2018-09-14T19:44:10.335Z,17.40
2018-09-14T19:48:13.675Z,17.40
2018-09-14T19:52:17.050Z,17.40
2018-09-14T19:56:20.412Z,17.30
2018-09-14T20:00:23.818Z,17.30
2018-09-14T20:04:27.200Z,17.30
2018-09-14T20:08:30.640Z,17.20
2018-09-14T20:12:34.016Z,17.30
2018-09-14T20:16:37.423Z,17.20
2018-09-14T20:20:40.939Z,17.30
2018-09-14T20:24:44.613Z,17.30
2018-09-14T20:28:48.385Z,17.30
2018-09-14T20:32:53.284Z,17.30
2018-09-14T20:36:57.061Z,17.30
2018-09-14T20:41:00.871Z,17.30
2018-09-14T20:45:04.668Z,17.30
2018-09-14T20:49:10.317Z,17.30
2018-09-14T20:53:13.788Z,17.20
2018-09-14T20:57:17.319Z,17.20
2018-09-14T21:01:20.740Z,17.20
2018-09-14T21:05:24.095Z,17.10
2018-09-14T21:09:27.481Z,17.10
2018-09-14T21:13:30.886Z,17.10
2018-09-14T21:17:34.583Z,17.00
2018-09-14T21:21:38.037Z,16.90
2018-09-14T21:25:41.389Z,16.90
2018-09-14T21:29:44.940Z,16.90
2018-09-14T21:33:48.288Z,16.90
2018-09-14T21:37:51.688Z,16.80
2018-09-14T21:41:55.085Z,16.80
2018-09-14T21:45:58.443Z,16.80
2018-09-14T21:50:01.799Z,16.80
2018-09-14T21:54:05.215Z,16.70
2018-09-14T21:58:08.529Z,16.70
2018-09-14T22:02:11.897Z,16.60
2018-09-14T22:06:15.268Z,16.60
2018-09-14T22:10:18.624Z,16.50
2018-09-14T22:14:22.098Z,16.50
2018-09-14T22:18:25.442Z,16.40
2018-09-14T22:22:29.364Z,16.40
2018-09-14T22:26:32.948Z,16.30
2018-09-14T22:30:36.495Z,16.30
2018-09-14T22:34:40.066Z,16.30
2018-09-14T22:38:43.640Z,16.30
2018-09-14T22:42:46.985Z,16.20
2018-09-14T22:46:50.490Z,16.20
2018-09-14T22:50:54.167Z,16.10
2018-09-14T22:54:57.730Z,16.10
2018-09-14T22:59:01.264Z,16.10
2018-09-14T23:03:04.869Z,16.10
2018-09-14T23:07:08.353Z,16.10
2018-09-14T23:11:11.977Z,16.10
2018-09-14T23:15:15.685Z,16.10
2018-09-14T23:19:19.146Z,16.10
2018-09-14T23:23:22.844Z,16.10
2018-09-14T23:27:26.342Z,16.00
2018-09-14T23:31:29.894Z,16.00
2018-09-14T23:35:33.332Z,15.90
2018-09-14T23:39:36.776Z,15.80
2018-09-14T23:43:40.193Z,15.70
2018-09-14T23:47:43.575Z,15.60
2018-09-14T23:51:46.988Z,15.60
2018-09-14T23:55:50.323Z,15.50
2018-09-14T23:59:53.898Z,15.40
